sensor_id;sensor_type;location;lat;lon;timestamp;P1;P2;P0
45990;PMS5003;31721;41.740;-88.000;2023-04-15T00:00:17;10;10;
45990;PMS5003;31721;41.740;-88.000;2023-04-15T00:02:45;8;7;
45990;PMS5003;31721;41.740;-88.000;2023-04-15T00:05:12;11;10;
45990;PMS5003;31721;41.740;-88.000;2023-04-15T00:07:41;12;9;
45990;PMS5003;31721;41.740;-88.000;2023-04-15T00:10:09;10;8;
45990;PMS5003;31721;41.740;-88.000;2023-04-15T00:12:37;7;7;
45990;PMS5003;31721;41.740;-88.000;2023-04-15T00:15:05;11;11;
45990;PMS5003;31721;41.740;-88.000;2023-04-15T00:17:34;7;7;
45990;PMS5003;31721;41.740;-88.000;2023-04-15T00:20:02;8;7;
45990;PMS5003;31721;41.740;-88.000;2023-04-15T00:22:30;8;7;
45990;PMS5003;31721;41.740;-88.000;2023-04-15T00:24:58;6;6;
45990;PMS5003;31721;41.740;-88.000;2023-04-15T00:27:26;9;9;
45990;PMS5003;31721;41.740;-88.000;2023-04-15T00:29:53;8;7;
45990;PMS5003;31721;41.740;-88.000;2023-04-15T00:32:21;8;7;
45990;PMS5003;31721;41.740;-88.000;2023-04-15T00:34:49;6;6;
45990;PMS5003;31721;41.740;-88.000;2023-04-15T00:37:16;13;12;
45990;PMS5003;31721;41.740;-88.000;2023-04-15T00:39:44;9;9;
45990;PMS5003;31721;41.740;-88.000;2023-04-15T00:42:12;10;8;
45990;PMS5003;31721;41.740;-88.000;2023-04-15T00:44:39;7;7;
45990;PMS5003;31721;41.740;-88.000;2023-04-15T00:47:07;9;9;
45990;PMS5003;31721;41.740;-88.000;2023-04-15T00:49:36;6;6;
45990;PMS5003;31721;41.740;-88.000;2023-04-15T00:52:04;9;8;
45990;PMS5003;31721;41.740;-88.000;2023-04-15T00:54:32;9;7;
45990;PMS5003;31721;41.740;-88.000;2023-04-15T00:57:00;8;8;
45990;PMS5003;31721;41.740;-88.000;2023-04-15T00:59:29;6;6;
45990;PMS5003;31721;41.740;-88.000;2023-04-15T01:01:57;12;10;
45990;PMS5003;31721;41.740;-88.000;2023-04-15T01:04:25;10;10;
45990;PMS5003;31721;41.740;-88.000;2023-04-15T01:06:53;13;9;
45990;PMS5003;31721;41.740;-88.000;2023-04-15T01:09:21;13;11;
45990;PMS5003;31721;41.740;-88.000;2023-04-15T01:11:49;10;10;
45990;PMS5003;31721;41.740;-88.000;2023-04-15T01:14:17;10;10;
45990;PMS5003;31721;41.740;-88.000;2023-04-15T01:16:45;9;9;
45990;PMS5003;31721;41.740;-88.000;2023-04-15T01:19:13;16;12;
45990;PMS5003;31721;41.740;-88.000;2023-04-15T01:21:42;15;15;
45990;PMS5003;31721;41.740;-88.000;2023-04-15T01:24:10;16;15;
45990;PMS5003;31721;41.740;-88.000;2023-04-15T01:26:39;24;22;
45990;PMS5003;31721;41.740;-88.000;2023-04-15T01:29:07;12;11;
45990;PMS5003;31721;41.740;-88.000;2023-04-15T01:31:35;18;16;
45990;PMS5003;31721;41.740;-88.000;2023-04-15T01:34:03;19;18;
45990;PMS5003;31721;41.740;-88.000;2023-04-15T01:36:31;20;20;
45990;PMS5003;31721;41.740;-88.000;2023-04-15T01:39:00;25;22;
45990;PMS5003;31721;41.740;-88.000;2023-04-15T01:41:27;24;22;
45990;PMS5003;31721;41.740;-88.000;2023-04-15T01:43:55;21;20;
45990;PMS5003;31721;41.740;-88.000;2023-04-15T01:46:23;26;25;
45990;PMS5003;31721;41.740;-88.000;2023-04-15T01:48:51;27;23;
45990;PMS5003;31721;41.740;-88.000;2023-04-15T01:51:19;26;25;
45990;PMS5003;31721;41.740;-88.000;2023-04-15T01:53:46;25;22;
45990;PMS5003;31721;41.740;-88.000;2023-04-15T01:56:14;25;23;
45990;PMS5003;31721;41.740;-88.000;2023-04-15T01:58:42;25;23;
45990;PMS5003;31721;41.740;-88.000;2023-04-15T02:01:10;32;28;
45990;PMS5003;31721;41.740;-88.000;2023-04-15T02:03:37;28;26;
45990;PMS5003;31721;41.740;-88.000;2023-04-15T02:06:05;26;23;
45990;PMS5003;31721;41.740;-88.000;2023-04-15T02:08:33;35;31;
45990;PMS5003;31721;41.740;-88.000;2023-04-15T02:11:01;28;28;
45990;PMS5003;31721;41.740;-88.000;2023-04-15T02:13:29;33;30;
45990;PMS5003;31721;41.740;-88.000;2023-04-15T02:15:57;35;34;
45990;PMS5003;31721;41.740;-88.000;2023-04-15T02:18:25;29;26;
45990;PMS5003;31721;41.740;-88.000;2023-04-15T02:20:53;33;30;
45990;PMS5003;31721;41.740;-88.000;2023-04-15T02:23:21;31;29;
45990;PMS5003;31721;41.740;-88.000;2023-04-15T02:25:49;29;28;
45990;PMS5003;31721;41.740;-88.000;2023-04-15T02:28:17;22;22;
45990;PMS5003;31721;41.740;-88.000;2023-04-15T02:30:46;36;32;
45990;PMS5003;31721;41.740;-88.000;2023-04-15T02:33:14;26;24;
45990;PMS5003;31721;41.740;-88.000;2023-04-15T02:35:42;30;25;
45990;PMS5003;31721;41.740;-88.000;2023-04-15T02:38:10;29;27;
45990;PMS5003;31721;41.740;-88.000;2023-04-15T02:40:37;32;28;
45990;PMS5003;31721;41.740;-88.000;2023-04-15T02:43:05;29;28;
45990;PMS5003;31721;41.740;-88.000;2023-04-15T02:45:33;34;33;
45990;PMS5003;31721;41.740;-88.000;2023-04-15T02:48:01;33;32;
45990;PMS5003;31721;41.740;-88.000;2023-04-15T02:50:29;34;33;
45990;PMS5003;31721;41.740;-88.000;2023-04-15T02:52:57;35;34;
45990;PMS5003;31721;41.740;-88.000;2023-04-15T02:55:25;47;43;
45990;PMS5003;31721;41.740;-88.000;2023-04-15T02:57:53;26;26;
45990;PMS5003;31721;41.740;-88.000;2023-04-15T03:00:21;34;30;
45990;PMS5003;31721;41.740;-88.000;2023-04-15T03:02:49;31;30;
45990;PMS5003;31721;41.740;-88.000;2023-04-15T03:05:18;42;40;
45990;PMS5003;31721;41.740;-88.000;2023-04-15T03:07:46;42;40;
45990;PMS5003;31721;41.740;-88.000;2023-04-15T03:10:14;29;25;
45990;PMS5003;31721;41.740;-88.000;2023-04-15T03:12:42;28;26;
45990;PMS5003;31721;41.740;-88.000;2023-04-15T03:15:10;28;27;
45990;PMS5003;31721;41.740;-88.000;2023-04-15T03:17:38;32;30;
45990;PMS5003;31721;41.740;-88.000;2023-04-15T03:20:06;26;24;
45990;PMS5003;31721;41.740;-88.000;2023-04-15T03:22:34;31;31;
45990;PMS5003;31721;41.740;-88.000;2023-04-15T03:25:02;36;33;
45990;PMS5003;31721;41.740;-88.000;2023-04-15T03:27:30;35;32;
45990;PMS5003;31721;41.740;-88.000;2023-04-15T03:29:58;37;33;
45990;PMS5003;31721;41.740;-88.000;2023-04-15T03:32:25;31;29;
45990;PMS5003;31721;41.740;-88.000;2023-04-15T03:34:54;31;25;
45990;PMS5003;31721;41.740;-88.000;2023-04-15T03:37:22;25;22;
45990;PMS5003;31721;41.740;-88.000;2023-04-15T03:39:50;26;23;
45990;PMS5003;31721;41.740;-88.000;2023-04-15T03:42:18;27;27;
45990;PMS5003;31721;41.740;-88.000;2023-04-15T03:44:46;33;28;
45990;PMS5003;31721;41.740;-88.000;2023-04-15T03:47:14;39;30;
45990;PMS5003;31721;41.740;-88.000;2023-04-15T03:49:42;37;33;
45990;PMS5003;31721;41.740;-88.000;2023-04-15T03:52:10;35;35;
45990;PMS5003;31721;41.740;-88.000;2023-04-15T03:54:38;36;35;
45990;PMS5003;31721;41.740;-88.000;2023-04-15T03:57:05;35;30;
45990;PMS5003;31721;41.740;-88.000;2023-04-15T03:59:33;45;38;
45990;PMS5003;31721;41.740;-88.000;2023-04-15T04:02:01;37;36;
45990;PMS5003;31721;41.740;-88.000;2023-04-15T04:04:29;46;41;
45990;PMS5003;31721;41.740;-88.000;2023-04-15T04:06:56;38;35;
45990;PMS5003;31721;41.740;-88.000;2023-04-15T04:09:24;32;30;
45990;PMS5003;31721;41.740;-88.000;2023-04-15T04:11:52;45;40;
45990;PMS5003;31721;41.740;-88.000;2023-04-15T04:14:20;40;38;
45990;PMS5003;31721;41.740;-88.000;2023-04-15T04:16:48;33;30;
45990;PMS5003;31721;41.740;-88.000;2023-04-15T04:19:15;43;39;
45990;PMS5003;31721;41.740;-88.000;2023-04-15T04:21:43;45;40;
45990;PMS5003;31721;41.740;-88.000;2023-04-15T04:24:10;46;40;
45990;PMS5003;31721;41.740;-88.000;2023-04-15T04:26:38;47;41;
45990;PMS5003;31721;41.740;-88.000;2023-04-15T04:29:06;57;52;
45990;PMS5003;31721;41.740;-88.000;2023-04-15T04:31:33;48;42;
45990;PMS5003;31721;41.740;-88.000;2023-04-15T04:34:01;48;47;
45990;PMS5003;31721;41.740;-88.000;2023-04-15T04:36:29;49;42;
45990;PMS5003;31721;41.740;-88.000;2023-04-15T04:38:57;47;43;
45990;PMS5003;31721;41.740;-88.000;2023-04-15T04:41:26;68;66;
45990;PMS5003;31721;41.740;-88.000;2023-04-15T04:43:54;50;47;
45990;PMS5003;31721;41.740;-88.000;2023-04-15T04:46:22;43;38;
45990;PMS5003;31721;41.740;-88.000;2023-04-15T04:48:54;36;34;
45990;PMS5003;31721;41.740;-88.000;2023-04-15T04:51:23;41;34;
45990;PMS5003;31721;41.740;-88.000;2023-04-15T04:53:51;39;36;
45990;PMS5003;31721;41.740;-88.000;2023-04-15T04:56:19;45;43;
45990;PMS5003;31721;41.740;-88.000;2023-04-15T04:58:47;68;64;
45990;PMS5003;31721;41.740;-88.000;2023-04-15T05:01:15;37;33;
45990;PMS5003;31721;41.740;-88.000;2023-04-15T05:03:44;38;35;
45990;PMS5003;31721;41.740;-88.000;2023-04-15T05:06:12;43;40;
45990;PMS5003;31721;41.740;-88.000;2023-04-15T05:08:40;34;33;
45990;PMS5003;31721;41.740;-88.000;2023-04-15T05:11:07;30;29;
45990;PMS5003;31721;41.740;-88.000;2023-04-15T05:13:35;36;33;
45990;PMS5003;31721;41.740;-88.000;2023-04-15T05:16:03;35;34;
45990;PMS5003;31721;41.740;-88.000;2023-04-15T05:18:31;31;30;
45990;PMS5003;31721;41.740;-88.000;2023-04-15T05:20:59;57;56;
45990;PMS5003;31721;41.740;-88.000;2023-04-15T05:23:28;30;29;
45990;PMS5003;31721;41.740;-88.000;2023-04-15T05:25:56;26;22;
45990;PMS5003;31721;41.740;-88.000;2023-04-15T05:28:23;21;20;
45990;PMS5003;31721;41.740;-88.000;2023-04-15T05:30:51;19;18;
45990;PMS5003;31721;41.740;-88.000;2023-04-15T05:33:20;19;17;
45990;PMS5003;31721;41.740;-88.000;2023-04-15T05:35:48;16;14;
45990;PMS5003;31721;41.740;-88.000;2023-04-15T05:38:16;14;14;
45990;PMS5003;31721;41.740;-88.000;2023-04-15T05:40:44;14;14;
45990;PMS5003;31721;41.740;-88.000;2023-04-15T05:43:12;20;17;
45990;PMS5003;31721;41.740;-88.000;2023-04-15T05:45:40;19;18;
45990;PMS5003;31721;41.740;-88.000;2023-04-15T05:48:08;23;22;
45990;PMS5003;31721;41.740;-88.000;2023-04-15T05:50:36;14;13;
45990;PMS5003;31721;41.740;-88.000;2023-04-15T05:53:06;15;15;
45990;PMS5003;31721;41.740;-88.000;2023-04-15T05:55:34;19;16;
45990;PMS5003;31721;41.740;-88.000;2023-04-15T05:58:02;15;14;
45990;PMS5003;31721;41.740;-88.000;2023-04-15T06:00:29;13;8;
45990;PMS5003;31721;41.740;-88.000;2023-04-15T06:02:57;13;12;
45990;PMS5003;31721;41.740;-88.000;2023-04-15T06:05:25;16;15;
45990;PMS5003;31721;41.740;-88.000;2023-04-15T06:07:53;11;11;
45990;PMS5003;31721;41.740;-88.000;2023-04-15T06:10:21;14;11;
45990;PMS5003;31721;41.740;-88.000;2023-04-15T06:12:48;11;11;
45990;PMS5003;31721;41.740;-88.000;2023-04-15T06:15:18;12;11;
45990;PMS5003;31721;41.740;-88.000;2023-04-15T06:17:47;14;11;
45990;PMS5003;31721;41.740;-88.000;2023-04-15T06:20:15;12;12;
45990;PMS5003;31721;41.740;-88.000;2023-04-15T06:22:42;14;14;
45990;PMS5003;31721;41.740;-88.000;2023-04-15T06:25:10;11;11;
45990;PMS5003;31721;41.740;-88.000;2023-04-15T06:27:37;15;12;
45990;PMS5003;31721;41.740;-88.000;2023-04-15T06:30:06;15;12;
45990;PMS5003;31721;41.740;-88.000;2023-04-15T06:32:34;17;16;
45990;PMS5003;31721;41.740;-88.000;2023-04-15T06:35:02;26;26;
45990;PMS5003;31721;41.740;-88.000;2023-04-15T06:37:30;26;25;
45990;PMS5003;31721;41.740;-88.000;2023-04-15T06:39:57;12;12;
45990;PMS5003;31721;41.740;-88.000;2023-04-15T06:42:25;21;20;
45990;PMS5003;31721;41.740;-88.000;2023-04-15T06:44:53;14;14;
45990;PMS5003;31721;41.740;-88.000;2023-04-15T06:47:21;27;25;
45990;PMS5003;31721;41.740;-88.000;2023-04-15T06:49:49;50;48;
45990;PMS5003;31721;41.740;-88.000;2023-04-15T06:52:16;19;19;
45990;PMS5003;31721;41.740;-88.000;2023-04-15T06:54:44;16;13;
45990;PMS5003;31721;41.740;-88.000;2023-04-15T06:57:12;62;61;
45990;PMS5003;31721;41.740;-88.000;2023-04-15T06:59:40;14;13;
45990;PMS5003;31721;41.740;-88.000;2023-04-15T07:02:08;14;14;
45990;PMS5003;31721;41.740;-88.000;2023-04-15T07:04:39;21;21;
45990;PMS5003;31721;41.740;-88.000;2023-04-15T07:07:07;22;22;
45990;PMS5003;31721;41.740;-88.000;2023-04-15T07:09:35;10;8;
45990;PMS5003;31721;41.740;-88.000;2023-04-15T07:12:03;17;16;
45990;PMS5003;31721;41.740;-88.000;2023-04-15T07:14:30;20;18;
45990;PMS5003;31721;41.740;-88.000;2023-04-15T07:16:58;21;21;
45990;PMS5003;31721;41.740;-88.000;2023-04-15T07:19:26;20;18;
45990;PMS5003;31721;41.740;-88.000;2023-04-15T07:21:54;16;16;
45990;PMS5003;31721;41.740;-88.000;2023-04-15T07:24:21;16;15;
45990;PMS5003;31721;41.740;-88.000;2023-04-15T07:26:49;9;9;
45990;PMS5003;31721;41.740;-88.000;2023-04-15T07:29:17;16;16;
45990;PMS5003;31721;41.740;-88.000;2023-04-15T07:31:45;16;16;
45990;PMS5003;31721;41.740;-88.000;2023-04-15T07:34:13;18;18;
45990;PMS5003;31721;41.740;-88.000;2023-04-15T07:36:40;16;16;
45990;PMS5003;31721;41.740;-88.000;2023-04-15T07:39:08;20;20;
45990;PMS5003;31721;41.740;-88.000;2023-04-15T07:41:36;20;18;
45990;PMS5003;31721;41.740;-88.000;2023-04-15T07:44:04;19;19;
45990;PMS5003;31721;41.740;-88.000;2023-04-15T07:46:32;15;14;
45990;PMS5003;31721;41.740;-88.000;2023-04-15T07:49:00;13;9;
45990;PMS5003;31721;41.740;-88.000;2023-04-15T07:51:28;14;13;
45990;PMS5003;31721;41.740;-88.000;2023-04-15T07:53:55;17;16;
45990;PMS5003;31721;41.740;-88.000;2023-04-15T07:56:23;16;15;
45990;PMS5003;31721;41.740;-88.000;2023-04-15T07:58:51;19;18;
45990;PMS5003;31721;41.740;-88.000;2023-04-15T08:01:19;14;14;
45990;PMS5003;31721;41.740;-88.000;2023-04-15T08:03:47;15;15;
45990;PMS5003;31721;41.740;-88.000;2023-04-15T08:06:14;12;12;
45990;PMS5003;31721;41.740;-88.000;2023-04-15T08:08:42;20;20;
45990;PMS5003;31721;41.740;-88.000;2023-04-15T08:11:10;21;18;
45990;PMS5003;31721;41.740;-88.000;2023-04-15T08:13:38;28;24;
45990;PMS5003;31721;41.740;-88.000;2023-04-15T08:16:14;33;32;
45990;PMS5003;31721;41.740;-88.000;2023-04-15T08:18:44;30;30;
45990;PMS5003;31721;41.740;-88.000;2023-04-15T08:21:12;18;18;
45990;PMS5003;31721;41.740;-88.000;2023-04-15T08:23:40;29;28;
45990;PMS5003;31721;41.740;-88.000;2023-04-15T08:26:09;37;37;
45990;PMS5003;31721;41.740;-88.000;2023-04-15T08:28:37;45;38;
45990;PMS5003;31721;41.740;-88.000;2023-04-15T08:31:06;20;20;
45990;PMS5003;31721;41.740;-88.000;2023-04-15T08:33:34;35;35;
45990;PMS5003;31721;41.740;-88.000;2023-04-15T08:36:01;19;17;
45990;PMS5003;31721;41.740;-88.000;2023-04-15T08:38:29;32;32;
45990;PMS5003;31721;41.740;-88.000;2023-04-15T08:41:00;37;36;
45990;PMS5003;31721;41.740;-88.000;2023-04-15T08:43:33;41;40;
45990;PMS5003;31721;41.740;-88.000;2023-04-15T08:46:07;16;16;
45990;PMS5003;31721;41.740;-88.000;2023-04-15T08:48:36;17;17;
45990;PMS5003;31721;41.740;-88.000;2023-04-15T08:51:05;20;18;
45990;PMS5003;31721;41.740;-88.000;2023-04-15T08:53:34;51;51;
45990;PMS5003;31721;41.740;-88.000;2023-04-15T08:56:03;18;16;
45990;PMS5003;31721;41.740;-88.000;2023-04-15T08:58:33;53;53;
45990;PMS5003;31721;41.740;-88.000;2023-04-15T09:01:02;31;31;
45990;PMS5003;31721;41.740;-88.000;2023-04-15T09:03:30;32;32;
45990;PMS5003;31721;41.740;-88.000;2023-04-15T09:05:58;23;23;
45990;PMS5003;31721;41.740;-88.000;2023-04-15T09:08:26;25;24;
45990;PMS5003;31721;41.740;-88.000;2023-04-15T09:10:53;27;27;
45990;PMS5003;31721;41.740;-88.000;2023-04-15T09:13:21;25;24;
45990;PMS5003;31721;41.740;-88.000;2023-04-15T09:15:49;31;30;
45990;PMS5003;31721;41.740;-88.000;2023-04-15T09:18:26;22;19;
45990;PMS5003;31721;41.740;-88.000;2023-04-15T09:20:54;18;17;
45990;PMS5003;31721;41.740;-88.000;2023-04-15T09:23:22;15;15;
45990;PMS5003;31721;41.740;-88.000;2023-04-15T09:25:49;20;19;
45990;PMS5003;31721;41.740;-88.000;2023-04-15T09:28:22;35;35;
45990;PMS5003;31721;41.740;-88.000;2023-04-15T09:30:51;44;44;
45990;PMS5003;31721;41.740;-88.000;2023-04-15T09:33:22;20;19;
45990;PMS5003;31721;41.740;-88.000;2023-04-15T09:35:58;28;26;
45990;PMS5003;31721;41.740;-88.000;2023-04-15T09:38:31;18;17;
45990;PMS5003;31721;41.740;-88.000;2023-04-15T09:41:00;16;13;
45990;PMS5003;31721;41.740;-88.000;2023-04-15T09:43:41;14;14;
45990;PMS5003;31721;41.740;-88.000;2023-04-15T09:46:09;18;17;
45990;PMS5003;31721;41.740;-88.000;2023-04-15T09:48:37;24;21;
45990;PMS5003;31721;41.740;-88.000;2023-04-15T09:51:06;24;20;
45990;PMS5003;31721;41.740;-88.000;2023-04-15T09:53:34;21;21;
45990;PMS5003;31721;41.740;-88.000;2023-04-15T09:56:03;24;24;
45990;PMS5003;31721;41.740;-88.000;2023-04-15T09:58:31;14;14;
45990;PMS5003;31721;41.740;-88.000;2023-04-15T10:01:02;32;31;
45990;PMS5003;31721;41.740;-88.000;2023-04-15T10:03:31;68;68;
45990;PMS5003;31721;41.740;-88.000;2023-04-15T10:06:01;34;33;
45990;PMS5003;31721;41.740;-88.000;2023-04-15T10:08:29;28;26;
45990;PMS5003;31721;41.740;-88.000;2023-04-15T10:10:59;16;13;
45990;PMS5003;31721;41.740;-88.000;2023-04-15T10:13:29;24;24;
45990;PMS5003;31721;41.740;-88.000;2023-04-15T10:15:58;29;29;
45990;PMS5003;31721;41.740;-88.000;2023-04-15T10:18:27;16;15;
45990;PMS5003;31721;41.740;-88.000;2023-04-15T10:20:58;19;16;
45990;PMS5003;31721;41.740;-88.000;2023-04-15T10:23:28;20;20;
45990;PMS5003;31721;41.740;-88.000;2023-04-15T10:25:55;26;25;
45990;PMS5003;31721;41.740;-88.000;2023-04-15T10:28:24;18;17;
45990;PMS5003;31721;41.740;-88.000;2023-04-15T10:30:52;20;19;
45990;PMS5003;31721;41.740;-88.000;2023-04-15T10:33:21;34;32;
45990;PMS5003;31721;41.740;-88.000;2023-04-15T10:35:51;25;23;
45990;PMS5003;31721;41.740;-88.000;2023-04-15T10:38:37;32;30;
45990;PMS5003;31721;41.740;-88.000;2023-04-15T10:41:14;17;17;
45990;PMS5003;31721;41.740;-88.000;2023-04-15T10:43:46;17;17;
45990;PMS5003;31721;41.740;-88.000;2023-04-15T10:46:17;29;28;
45990;PMS5003;31721;41.740;-88.000;2023-04-15T10:48:47;25;25;
45990;PMS5003;31721;41.740;-88.000;2023-04-15T10:51:16;23;21;
45990;PMS5003;31721;41.740;-88.000;2023-04-15T10:53:55;20;20;
45990;PMS5003;31721;41.740;-88.000;2023-04-15T10:56:24;37;37;
45990;PMS5003;31721;41.740;-88.000;2023-04-15T10:58:53;35;31;
45990;PMS5003;31721;41.740;-88.000;2023-04-15T11:01:22;38;38;
45990;PMS5003;31721;41.740;-88.000;2023-04-15T11:04:35;35;35;
45990;PMS5003;31721;41.740;-88.000;2023-04-15T11:07:32;28;28;
45990;PMS5003;31721;41.740;-88.000;2023-04-15T11:10:02;43;43;
45990;PMS5003;31721;41.740;-88.000;2023-04-15T11:13:15;38;36;
45990;PMS5003;31721;41.740;-88.000;2023-04-15T11:15:45;47;45;
45990;PMS5003;31721;41.740;-88.000;2023-04-15T11:18:15;32;32;
45990;PMS5003;31721;41.740;-88.000;2023-04-15T11:20:45;34;32;
45990;PMS5003;31721;41.740;-88.000;2023-04-15T11:23:14;43;42;
45990;PMS5003;31721;41.740;-88.000;2023-04-15T11:25:43;36;36;
45990;PMS5003;31721;41.740;-88.000;2023-04-15T11:28:11;39;39;
45990;PMS5003;31721;41.740;-88.000;2023-04-15T11:30:39;45;45;
45990;PMS5003;31721;41.740;-88.000;2023-04-15T11:33:09;34;34;
45990;PMS5003;31721;41.740;-88.000;2023-04-15T11:35:38;35;34;
45990;PMS5003;31721;41.740;-88.000;2023-04-15T11:38:08;34;33;
45990;PMS5003;31721;41.740;-88.000;2023-04-15T11:40:36;32;32;
45990;PMS5003;31721;41.740;-88.000;2023-04-15T11:43:05;37;37;
45990;PMS5003;31721;41.740;-88.000;2023-04-15T11:45:34;32;30;
45990;PMS5003;31721;41.740;-88.000;2023-04-15T11:48:05;37;37;
45990;PMS5003;31721;41.740;-88.000;2023-04-15T11:50:34;29;29;
45990;PMS5003;31721;41.740;-88.000;2023-04-15T11:53:03;42;39;
45990;PMS5003;31721;41.740;-88.000;2023-04-15T11:55:40;36;31;
45990;PMS5003;31721;41.740;-88.000;2023-04-15T11:58:09;31;31;
45990;PMS5003;31721;41.740;-88.000;2023-04-15T12:00:38;30;28;
45990;PMS5003;31721;41.740;-88.000;2023-04-15T12:03:11;32;31;
45990;PMS5003;31721;41.740;-88.000;2023-04-15T12:06:14;32;32;
45990;PMS5003;31721;41.740;-88.000;2023-04-15T12:08:51;50;49;
45990;PMS5003;31721;41.740;-88.000;2023-04-15T12:11:26;35;35;
45990;PMS5003;31721;41.740;-88.000;2023-04-15T12:13:58;30;30;
45990;PMS5003;31721;41.740;-88.000;2023-04-15T12:16:30;31;31;
45990;PMS5003;31721;41.740;-88.000;2023-04-15T12:19:02;31;31;
45990;PMS5003;31721;41.740;-88.000;2023-04-15T12:21:33;27;27;
45990;PMS5003;31721;41.740;-88.000;2023-04-15T12:24:04;29;29;
45990;PMS5003;31721;41.740;-88.000;2023-04-15T12:26:34;33;30;
45990;PMS5003;31721;41.740;-88.000;2023-04-15T12:29:04;36;36;
45990;PMS5003;31721;41.740;-88.000;2023-04-15T12:31:34;38;38;
45990;PMS5003;31721;41.740;-88.000;2023-04-15T12:34:01;36;36;
45990;PMS5003;31721;41.740;-88.000;2023-04-15T12:36:33;31;31;
45990;PMS5003;31721;41.740;-88.000;2023-04-15T12:39:01;29;28;
45990;PMS5003;31721;41.740;-88.000;2023-04-15T12:41:29;26;26;
45990;PMS5003;31721;41.740;-88.000;2023-04-15T12:43:58;44;43;
45990;PMS5003;31721;41.740;-88.000;2023-04-15T12:46:26;25;25;
45990;PMS5003;31721;41.740;-88.000;2023-04-15T12:48:55;24;24;
45990;PMS5003;31721;41.740;-88.000;2023-04-15T12:51:23;46;45;
45990;PMS5003;31721;41.740;-88.000;2023-04-15T12:53:51;30;30;
45990;PMS5003;31721;41.740;-88.000;2023-04-15T12:56:19;29;29;
45990;PMS5003;31721;41.740;-88.000;2023-04-15T12:58:47;26;26;
45990;PMS5003;31721;41.740;-88.000;2023-04-15T13:01:15;34;34;
45990;PMS5003;31721;41.740;-88.000;2023-04-15T13:03:43;15;14;
45990;PMS5003;31721;41.740;-88.000;2023-04-15T13:06:11;26;26;
45990;PMS5003;31721;41.740;-88.000;2023-04-15T13:08:39;31;31;
45990;PMS5003;31721;41.740;-88.000;2023-04-15T13:11:07;23;23;
45990;PMS5003;31721;41.740;-88.000;2023-04-15T13:13:36;34;34;
45990;PMS5003;31721;41.740;-88.000;2023-04-15T13:16:04;17;17;
45990;PMS5003;31721;41.740;-88.000;2023-04-15T13:18:32;31;30;
45990;PMS5003;31721;41.740;-88.000;2023-04-15T13:21:00;45;45;
45990;PMS5003;31721;41.740;-88.000;2023-04-15T13:23:29;42;41;
45990;PMS5003;31721;41.740;-88.000;2023-04-15T13:25:57;69;69;
45990;PMS5003;31721;41.740;-88.000;2023-04-15T13:28:25;22;22;
45990;PMS5003;31721;41.740;-88.000;2023-04-15T13:30:53;53;53;
45990;PMS5003;31721;41.740;-88.000;2023-04-15T13:33:22;23;21;
45990;PMS5003;31721;41.740;-88.000;2023-04-15T13:35:50;13;13;
45990;PMS5003;31721;41.740;-88.000;2023-04-15T13:38:18;36;35;
45990;PMS5003;31721;41.740;-88.000;2023-04-15T13:40:46;7;7;
45990;PMS5003;31721;41.740;-88.000;2023-04-15T13:43:15;11;9;
45990;PMS5003;31721;41.740;-88.000;2023-04-15T13:45:45;13;10;
45990;PMS5003;31721;41.740;-88.000;2023-04-15T13:48:14;9;8;
45990;PMS5003;31721;41.740;-88.000;2023-04-15T13:50:41;10;8;
45990;PMS5003;31721;41.740;-88.000;2023-04-15T13:53:10;10;9;
45990;PMS5003;31721;41.740;-88.000;2023-04-15T13:55:37;11;8;
45990;PMS5003;31721;41.740;-88.000;2023-04-15T13:58:06;11;10;
45990;PMS5003;31721;41.740;-88.000;2023-04-15T14:00:35;8;7;
45990;PMS5003;31721;41.740;-88.000;2023-04-15T14:03:04;7;7;
45990;PMS5003;31721;41.740;-88.000;2023-04-15T14:05:32;10;10;
45990;PMS5003;31721;41.740;-88.000;2023-04-15T14:08:00;8;7;
45990;PMS5003;31721;41.740;-88.000;2023-04-15T14:10:27;9;9;
45990;PMS5003;31721;41.740;-88.000;2023-04-15T14:12:55;6;6;
45990;PMS5003;31721;41.740;-88.000;2023-04-15T14:15:23;10;8;
45990;PMS5003;31721;41.740;-88.000;2023-04-15T14:17:51;6;6;
45990;PMS5003;31721;41.740;-88.000;2023-04-15T14:20:20;5;5;
45990;PMS5003;31721;41.740;-88.000;2023-04-15T14:22:48;12;10;
45990;PMS5003;31721;41.740;-88.000;2023-04-15T14:25:16;10;8;
45990;PMS5003;31721;41.740;-88.000;2023-04-15T14:27:44;9;8;
45990;PMS5003;31721;41.740;-88.000;2023-04-15T14:30:12;8;7;
45990;PMS5003;31721;41.740;-88.000;2023-04-15T14:32:40;8;8;
45990;PMS5003;31721;41.740;-88.000;2023-04-15T14:35:08;11;10;
45990;PMS5003;31721;41.740;-88.000;2023-04-15T14:37:36;8;8;
45990;PMS5003;31721;41.740;-88.000;2023-04-15T14:40:04;9;9;
45990;PMS5003;31721;41.740;-88.000;2023-04-15T14:42:32;18;16;
45990;PMS5003;31721;41.740;-88.000;2023-04-15T14:45:03;18;18;
45990;PMS5003;31721;41.740;-88.000;2023-04-15T14:47:32;13;12;
45990;PMS5003;31721;41.740;-88.000;2023-04-15T14:50:00;12;12;
45990;PMS5003;31721;41.740;-88.000;2023-04-15T14:52:29;9;8;
45990;PMS5003;31721;41.740;-88.000;2023-04-15T14:54:57;11;9;
45990;PMS5003;31721;41.740;-88.000;2023-04-15T14:57:24;9;9;
45990;PMS5003;31721;41.740;-88.000;2023-04-15T14:59:52;11;9;
45990;PMS5003;31721;41.740;-88.000;2023-04-15T15:02:20;10;10;
45990;PMS5003;31721;41.740;-88.000;2023-04-15T15:04:48;7;7;
45990;PMS5003;31721;41.740;-88.000;2023-04-15T15:07:16;18;17;
45990;PMS5003;31721;41.740;-88.000;2023-04-15T15:09:45;9;8;
45990;PMS5003;31721;41.740;-88.000;2023-04-15T15:12:13;6;6;
45990;PMS5003;31721;41.740;-88.000;2023-04-15T15:14:40;9;8;
45990;PMS5003;31721;41.740;-88.000;2023-04-15T15:17:08;10;10;
45990;PMS5003;31721;41.740;-88.000;2023-04-15T15:19:36;10;8;
45990;PMS5003;31721;41.740;-88.000;2023-04-15T15:22:04;9;9;
45990;PMS5003;31721;41.740;-88.000;2023-04-15T15:24:32;9;7;
45990;PMS5003;31721;41.740;-88.000;2023-04-15T15:27:00;9;9;
45990;PMS5003;31721;41.740;-88.000;2023-04-15T15:29:29;11;10;
45990;PMS5003;31721;41.740;-88.000;2023-04-15T15:31:56;9;9;
45990;PMS5003;31721;41.740;-88.000;2023-04-15T15:34:25;9;9;
45990;PMS5003;31721;41.740;-88.000;2023-04-15T15:36:53;8;8;
45990;PMS5003;31721;41.740;-88.000;2023-04-15T15:39:21;11;8;
45990;PMS5003;31721;41.740;-88.000;2023-04-15T15:41:50;10;9;
45990;PMS5003;31721;41.740;-88.000;2023-04-15T15:44:17;8;8;
45990;PMS5003;31721;41.740;-88.000;2023-04-15T15:46:45;7;7;
45990;PMS5003;31721;41.740;-88.000;2023-04-15T15:49:13;7;6;
45990;PMS5003;31721;41.740;-88.000;2023-04-15T15:51:41;10;10;
45990;PMS5003;31721;41.740;-88.000;2023-04-15T15:54:09;8;8;
45990;PMS5003;31721;41.740;-88.000;2023-04-15T15:56:38;9;9;
45990;PMS5003;31721;41.740;-88.000;2023-04-15T15:59:06;7;7;
45990;PMS5003;31721;41.740;-88.000;2023-04-15T16:01:34;10;9;